Terminal Aerodrome Forecast
Issued by NWS

Home | Current Version | Previous Version | Text Only | Print | Product List | Glossary On
Versions: 1 2 3 4 5 6 7 8 9 10 11 12 13 14 15 16 17
000
FTUS42 KFFC 171700
TAFRYY
TAF
KRYY 171727Z 1718/1818 33005KT P6SM SKC
     FM180000 00000KT P6SM FEW250
     FM181500 02003KT P6SM SCT040
     FM181700 34004KT P6SM FEW045=

USA.gov is the U.S. government's official web portal to all federal, state and local government web resources and services.